Impacts TAF Board
For situational awareness. Not to be used for flight planning purposes.
IDs:

KDCA - Washington/National, VA, US

Issued at 0859 UTC 11 May 2021
Updated at 1043 UTC 11 May 2021
Potential Impact None Slight Moderate High
Time0952Z 11/11Z 11/12Z 11/13Z 11/14Z 11/15Z 11/16Z 11/17Z 11/18Z 11/19Z 11/20Z 11/21Z 11/22Z 11/23Z>>
Type OBS PRVL PRVL PRVL PRVL PRVL PRVL PRVL PRVL PRVL PRVL PRVL PRVL PRVL
VIS 10 >6 >6 >6 >6 >6 >6 >6 >6 >6 >6 >6 >6 >6
CIG 130 250 250 250 250 250 250 250 250 80 80 70 70 70
Cover BKN BKN BKN BKN BKN BKN BKN BKN BKN BKN BKN BKN BKN BKN
FltCat VFR VFR VFR VFR VFR VFR VFR VFR VFR VFR VFR VFR VFR VFR
WX -- -- -- -- -- -- -- -- -- -- -- -- -- --
WDir 350 330 330 330 270 270 270 270 270 300 300 300 300 300
WSpd 5 4 4 4 5 5 5 5 5 9 9 12 12 12
WGst -- -- -- -- -- -- -- -- -- -- -- 24 24 24
Raw TAF
KDCA 110859Z 1109/1212 33004KT P6SM BKN250
  FM111400 27005KT P6SM BKN250
  FM111900 30009KT P6SM BKN080
  FM112100 30012G24KT P6SM BKN070
  FM120000 33008KT P6SM BKN070


Raw METAR
KDCA 110952Z 35005KT 10SM BKN130 BKN250 12/03 A3009 RMK AO2 SLP189 T01220033
KDCA 110852Z 00000KT 10SM BKN130 OVC250 13/01 A3009 RMK AO2 SLP187 T01330011 53004
KDCA 110752Z VRB03KT 10SM BKN120 OVC250 13/02 A3008 RMK AO2 SLP186 T01280022

METAR Board
Radar Display
Forecast Discussion
For situational awareness. Not to be used for flight planning purposes.